Time;durP1;ratioP1;P1;durP2;ratioP2;P2;SDS_P1;SDS_P2;PMS_P1;PMS_P2;Temp;Humidity;BMP_temperature;BMP_pressure;BME280_temperature;BME280_humidity;BME280_pressure;Samples;Min_cycle;Max_cycle;Signal;HPM_P1;HPM_P2
2021/03/03 00:01:23;;;;;;;15.83;10.50;;;;;;;2.12;82.70;102254.16;5075937;28;20236;-82
2021/03/03 00:03:49;;;;;;;14.63;10.30;;;;;;;2.11;82.61;102253.28;5072239;28;20228;-82
2021/03/03 00:06:15;;;;;;;16.37;10.97;;;;;;;2.09;82.50;102261.19;5069360;28;20801;-82
2021/03/03 00:08:41;;;;;;;15.97;10.30;;;;;;;2.06;83.05;102263.81;5076046;28;20242;-82
2021/03/03 00:11:07;;;;;;;14.43;9.53;;;;;;;2.01;82.46;102262.94;5076868;28;20414;-80
2021/03/03 00:13:33;;;;;;;15.63;10.33;;;;;;;1.95;82.34;102257.72;5076375;28;20204;-80
2021/03/03 00:15:59;;;;;;;13.87;9.50;;;;;;;1.89;82.71;102262.97;5078474;28;20208;-82
2021/03/03 00:18:26;;;;;;;15.77;9.30;;;;;;;1.84;82.36;102272.59;5077550;28;20204;-82
2021/03/03 00:20:52;;;;;;;13.53;9.90;;;;;;;1.80;82.67;102262.97;5073784;28;20203;-80
2021/03/03 00:23:18;;;;;;;19.10;10.20;;;;;;;1.77;82.92;102263.00;5076697;28;20232;-82
2021/03/03 00:25:44;;;;;;;16.63;9.73;;;;;;;1.77;82.24;102262.13;5078496;28;20247;-79
2021/03/03 00:28:10;;;;;;;20.10;10.23;;;;;;;1.75;82.45;102256.88;5079889;28;20205;-79
2021/03/03 00:30:36;;;;;;;16.57;10.63;;;;;;;1.76;82.42;102255.13;5079949;28;20272;-79
2021/03/03 00:33:02;;;;;;;19.07;10.37;;;;;;;1.76;82.59;102257.75;5080829;28;20549;-80
2021/03/03 00:35:29;;;;;;;16.90;10.23;;;;;;;1.76;82.54;102248.13;5079367;28;20239;-79
2021/03/03 00:37:55;;;;;;;14.30;9.20;;;;;;;1.77;82.51;102247.25;5080752;28;20228;-79
2021/03/03 00:40:21;;;;;;;14.87;9.90;;;;;;;1.76;82.64;102250.75;5080439;28;20295;-79
2021/03/03 00:42:47;;;;;;;14.43;8.83;;;;;;;1.76;82.65;102247.25;5079508;28;20213;-79
2021/03/03 00:45:13;;;;;;;14.03;9.13;;;;;;;1.72;82.47;102243.75;5080370;28;20224;-79
2021/03/03 00:47:39;;;;;;;13.93;9.03;;;;;;;1.71;82.38;102239.38;5078674;28;20275;-84
2021/03/03 00:50:06;;;;;;;15.00;9.57;;;;;;;1.70;82.70;102245.50;5077812;28;20213;-83
2021/03/03 00:52:33;;;;;;;16.33;10.53;;;;;;;1.67;82.60;102237.63;5077385;28;20227;-83
2021/03/03 00:54:59;;;;;;;13.13;9.40;;;;;;;1.65;82.75;102231.47;5077209;28;20235;-83
2021/03/03 00:57:25;;;;;;;16.83;10.97;;;;;;;1.64;82.54;102229.72;5076512;28;20229;-82
2021/03/03 00:59:51;;;;;;;16.63;10.37;;;;;;;1.62;82.72;102228.84;5077138;28;20232;-81
2021/03/03 01:02:17;;;;;;;15.60;9.67;;;;;;;1.60;82.51;102223.63;5076786;28;20204;-82
2021/03/03 01:04:44;;;;;;;16.70;10.10;;;;;;;1.59;82.48;102223.63;5076606;28;20250;-82
2021/03/03 01:07:10;;;;;;;15.00;9.80;;;;;;;1.58;82.80;102211.38;5077001;28;20643;-81
2021/03/03 01:09:37;;;;;;;17.73;10.43;;;;;;;1.58;82.66;102216.63;5076546;28;20331;-81
2021/03/03 01:12:03;;;;;;;16.70;10.23;;;;;;;1.54;82.76;102204.38;5075774;28;20209;-81
2021/03/03 01:14:29;;;;;;;17.60;10.40;;;;;;;1.54;82.65;102207.88;5075670;28;20229;-81
2021/03/03 01:16:55;;;;;;;13.93;9.60;;;;;;;1.52;82.70;102206.13;5074338;28;20249;-82
2021/03/03 01:19:21;;;;;;;18.30;10.30;;;;;;;1.49;82.71;102203.50;5071748;28;20204;-82
2021/03/03 01:21:48;;;;;;;16.17;10.33;;;;;;;1.45;82.70;102192.13;5070882;28;20577;-82
2021/03/03 01:24:14;;;;;;;15.63;10.63;;;;;;;1.45;82.82;102207.00;5065936;28;20769;-82
2021/03/03 01:26:41;;;;;;;15.30;9.53;;;;;;;1.43;82.73;102200.91;5075002;28;20800;-83
2021/03/03 01:29:08;;;;;;;15.33;11.13;;;;;;;1.39;82.71;102195.66;5076115;28;20212;-82
2021/03/03 01:31:34;;;;;;;14.40;9.13;;;;;;;1.38;82.90;102193.03;5075268;28;20209;-81
2021/03/03 01:34:00;;;;;;;14.23;10.13;;;;;;;1.36;82.52;102200.91;5074590;28;20231;-82
2021/03/03 01:36:27;;;;;;;14.10;9.63;;;;;;;1.35;82.73;102190.41;5075097;28;20209;-83
2021/03/03 01:38:53;;;;;;;16.57;9.77;;;;;;;1.34;82.70;102193.91;5068271;28;20201;-81
2021/03/03 01:41:19;;;;;;;13.97;9.33;;;;;;;1.31;82.55;102183.41;5074297;28;20193;-82
2021/03/03 01:43:46;;;;;;;14.77;8.90;;;;;;;1.28;82.67;102186.88;5074476;28;20599;-82
2021/03/03 01:46:12;;;;;;;13.97;9.53;;;;;;;1.27;82.87;102193.00;5074176;28;20197;-81
2021/03/03 01:48:38;;;;;;;15.07;10.37;;;;;;;1.26;82.87;102185.13;5074539;28;20647;-81
2021/03/03 01:51:06;;;;;;;15.17;9.53;;;;;;;1.23;82.76;102175.53;5075084;28;20251;-81
2021/03/03 01:53:32;;;;;;;13.60;9.37;;;;;;;1.21;82.84;102177.28;5074404;28;20619;-81
2021/03/03 01:55:58;;;;;;;16.53;10.70;;;;;;;1.20;82.23;102177.28;5073051;28;20283;-82
2021/03/03 01:58:24;;;;;;;14.83;9.80;;;;;;;1.15;82.62;102173.78;5073638;28;20278;-81
2021/03/03 02:00:51;;;;;;;15.53;10.20;;;;;;;1.10;82.68;102179.03;5071346;28;20566;-81
2021/03/03 02:03:17;;;;;;;14.40;10.47;;;;;;;1.07;82.72;102173.81;5072881;28;20209;-82
2021/03/03 02:05:43;;;;;;;16.20;10.10;;;;;;;1.04;82.69;102163.31;5073623;28;20655;-82
2021/03/03 02:08:15;;;;;;;15.60;10.03;;;;;;;1.00;82.71;102154.56;5074257;28;20255;-81
2021/03/03 02:10:44;;;;;;;15.37;9.80;;;;;;;0.99;82.70;102158.03;5073856;28;20213;-81
2021/03/03 02:13:17;;;;;;;16.10;10.40;;;;;;;0.97;82.59;102162.41;5074308;28;20308;-80
2021/03/03 02:15:46;;;;;;;16.77;10.57;;;;;;;0.96;82.62;102154.53;5079339;28;20216;-80
2021/03/03 02:18:15;;;;;;;14.93;9.83;;;;;;;0.94;82.68;102146.66;5071160;28;20316;-80
2021/03/03 02:20:52;;;;;;;15.10;10.10;;;;;;;0.93;82.70;102146.66;5073646;28;20200;-79
2021/03/03 02:23:27;;;;;;;18.80;11.33;;;;;;;0.91;82.43;102158.91;5073765;28;20207;-81
2021/03/03 02:25:55;;;;;;;18.30;11.43;;;;;;;0.88;82.44;102151.06;5064087;28;20577;-79
2021/03/03 02:28:21;;;;;;;18.40;10.87;;;;;;;0.86;82.56;102148.44;5074197;28;20201;-82
2021/03/03 02:30:48;;;;;;;16.97;10.97;;;;;;;0.84;82.70;102146.69;5068938;28;20209;-81
2021/03/03 02:33:17;;;;;;;15.27;10.80;;;;;;;0.84;82.78;102149.31;5074310;28;20200;-80
2021/03/03 02:35:46;;;;;;;15.93;10.63;;;;;;;0.83;82.62;102144.94;5074039;28;20290;-81
2021/03/03 02:38:13;;;;;;;18.60;11.20;;;;;;;0.82;82.74;102144.06;5074381;28;20274;-80
2021/03/03 02:40:41;;;;;;;20.67;12.03;;;;;;;0.81;82.62;102144.06;5074749;28;20201;-82
2021/03/03 02:43:12;;;;;;;19.97;11.23;;;;;;;0.79;82.72;102143.19;5070223;28;20224;-82
2021/03/03 02:45:39;;;;;;;16.97;11.00;;;;;;;0.78;82.78;102144.91;5074579;28;20223;-81
2021/03/03 02:48:07;;;;;;;14.10;10.10;;;;;;;0.78;82.89;102138.81;5074973;28;20223;-81
2021/03/03 02:50:33;;;;;;;18.23;11.10;;;;;;;0.76;82.88;102136.19;5070389;28;20198;-80
2021/03/03 02:52:59;;;;;;;18.10;9.73;;;;;;;0.75;83.05;102129.19;5072688;28;20335;-79
2021/03/03 02:55:27;;;;;;;14.90;9.83;;;;;;;0.72;82.98;102129.16;5073013;28;20224;-81
2021/03/03 02:57:53;;;;;;;16.47;11.10;;;;;;;0.69;82.71;102129.19;5073357;28;20220;-82
2021/03/03 03:00:23;;;;;;;16.73;10.47;;;;;;;0.66;83.00;102131.81;5072840;28;20205;-82
2021/03/03 03:02:52;;;;;;;15.17;10.07;;;;;;;0.65;82.89;102132.69;5073960;28;20197;-82
2021/03/03 03:05:19;;;;;;;14.63;10.30;;;;;;;0.64;82.96;102133.56;5073221;28;20240;-80
2021/03/03 03:07:49;;;;;;;14.73;9.27;;;;;;;0.60;82.85;102132.66;5073620;28;20286;-82
2021/03/03 03:10:17;;;;;;;13.30;9.50;;;;;;;0.57;82.87;102135.28;5072980;28;20208;-81
2021/03/03 03:12:47;;;;;;;15.83;9.97;;;;;;;0.54;82.76;102130.03;5073540;28;20220;-81
2021/03/03 03:15:15;;;;;;;15.87;9.63;;;;;;;0.52;83.14;102130.94;5073168;28;20729;-81
2021/03/03 03:17:44;;;;;;;16.70;10.03;;;;;;;0.48;82.65;102135.28;5073173;28;20229;-81
2021/03/03 03:20:11;;;;;;;16.53;9.27;;;;;;;0.46;82.73;102141.38;5073748;28;20205;-80
2021/03/03 03:22:39;;;;;;;14.43;10.23;;;;;;;0.44;82.70;102141.38;5081002;22;20233;-66
2021/03/03 03:25:07;;;;;;;14.67;9.27;;;;;;;0.42;82.55;102142.25;5062953;28;20213;-65
2021/03/03 03:27:34;;;;;;;15.67;9.70;;;;;;;0.39;82.81;102145.72;5058004;28;20226;-65
2021/03/03 03:30:01;;;;;;;15.30;9.27;;;;;;;0.37;82.72;102139.59;5049245;28;20722;-64
2021/03/03 03:32:29;;;;;;;14.07;8.93;;;;;;;0.36;82.67;102145.72;5048653;28;20820;-64
2021/03/03 03:34:56;;;;;;;14.30;9.80;;;;;;;0.33;82.79;102145.75;5065276;22;20233;-64
2021/03/03 03:37:24;;;;;;;13.80;9.43;;;;;;;0.31;82.60;102142.22;5049841;28;20707;-64
2021/03/03 03:39:50;;;;;;;15.53;10.03;;;;;;;0.27;83.05;102137.84;5047167;28;20201;-64
2021/03/03 03:42:17;;;;;;;12.30;8.73;;;;;;;0.24;82.61;102143.06;5048693;28;20213;-64
2021/03/03 03:44:44;;;;;;;14.10;9.10;;;;;;;0.21;82.79;102141.31;5048990;28;20229;-64
2021/03/03 03:47:15;;;;;;;16.53;9.10;;;;;;;0.19;83.01;102139.56;5049519;28;20213;-64
2021/03/03 03:49:42;;;;;;;14.37;9.13;;;;;;;0.17;83.21;102149.19;5052349;28;20209;-64
2021/03/03 03:52:09;;;;;;;14.10;9.33;;;;;;;0.13;83.26;102148.28;5052225;28;20214;-64
2021/03/03 03:54:35;;;;;;;15.37;8.93;;;;;;;0.11;82.71;102144.78;5053070;28;20240;-64
2021/03/03 03:57:01;;;;;;;12.73;9.10;;;;;;;0.09;82.94;102137.78;5052159;28;20236;-64
2021/03/03 03:59:27;;;;;;;14.30;9.07;;;;;;;0.07;82.84;102137.78;5050084;28;20255;-64
2021/03/03 04:01:53;;;;;;;15.33;9.90;;;;;;;0.06;83.00;102135.16;5049981;28;20213;-64
2021/03/03 04:04:19;;;;;;;11.20;8.70;;;;;;;0.06;82.98;102135.16;5044766;28;20206;-64
2021/03/03 04:06:45;;;;;;;17.10;10.43;;;;;;;0.05;83.08;102138.66;5050805;28;20579;-64
2021/03/03 04:09:12;;;;;;;14.17;9.60;;;;;;;0.04;82.90;102136.91;5051777;28;20296;-64
2021/03/03 04:11:38;;;;;;;15.73;9.40;;;;;;;0.02;83.18;102136.88;5046642;28;20202;-63
2021/03/03 04:14:09;;;;;;;14.23;8.83;;;;;;;0.02;83.12;102136.88;5051437;28;20205;-62
2021/03/03 04:16:35;;;;;;;14.83;8.93;;;;;;;0.02;83.03;102143.88;5050058;28;20296;-64
2021/03/03 04:19:01;;;;;;;17.63;9.47;;;;;;;0.02;83.35;102130.78;5051659;28;20220;-64
2021/03/03 04:21:27;;;;;;;12.53;8.20;;;;;;;0.00;82.69;102129.03;5041500;28;20210;-64
2021/03/03 04:23:53;;;;;;;13.80;9.23;;;;;;;0.00;83.06;102130.78;5051470;28;20247;-64
2021/03/03 04:26:20;;;;;;;14.33;9.33;;;;;;;-0.01;83.21;102129.03;5043663;28;20226;-64
2021/03/03 04:28:46;;;;;;;16.43;9.23;;;;;;;-0.04;83.26;102124.66;5052505;28;20930;-65
2021/03/03 04:31:12;;;;;;;13.17;8.87;;;;;;;-0.04;82.99;102124.66;5049593;28;20657;-65
2021/03/03 04:33:38;;;;;;;14.13;9.20;;;;;;;-0.06;83.31;102131.63;5051131;28;20239;-65
2021/03/03 04:36:05;;;;;;;13.83;9.43;;;;;;;-0.07;83.09;102122.03;5048229;28;20229;-65
2021/03/03 04:38:31;;;;;;;15.77;10.37;;;;;;;-0.07;83.10;102124.66;5043611;28;20222;-65
2021/03/03 04:40:57;;;;;;;17.70;9.87;;;;;;;-0.08;83.26;102124.63;5051866;28;20496;-65
2021/03/03 04:43:24;;;;;;;13.07;9.30;;;;;;;-0.09;83.30;102115.03;5047841;28;20202;-65
2021/03/03 04:45:50;;;;;;;19.50;11.10;;;;;;;-0.10;83.33;102108.03;5048455;28;20312;-65
2021/03/03 04:48:16;;;;;;;18.00;10.70;;;;;;;-0.11;83.31;102109.78;5045834;28;20198;-65
2021/03/03 04:50:42;;;;;;;16.03;10.17;;;;;;;-0.12;83.53;102101.91;5048986;28;20209;-65
2021/03/03 04:53:08;;;;;;;16.20;9.47;;;;;;;-0.14;83.42;102106.28;5049551;28;20206;-65
2021/03/03 04:55:34;;;;;;;15.77;9.77;;;;;;;-0.15;83.40;102104.53;5045661;28;20605;-65
2021/03/03 04:58:00;;;;;;;14.57;9.03;;;;;;;-0.16;83.30;102103.66;5051957;28;20268;-65
2021/03/03 05:00:27;;;;;;;14.90;9.10;;;;;;;-0.17;83.24;102108.88;5047774;28;20344;-64
2021/03/03 05:02:53;;;;;;;13.57;8.50;;;;;;;-0.20;82.97;102112.38;5044917;28;20598;-65
2021/03/03 05:05:19;;;;;;;13.33;8.60;;;;;;;-0.22;83.36;102101.03;5047129;28;20225;-65
2021/03/03 05:07:45;;;;;;;14.30;9.13;;;;;;;-0.21;83.29;102100.16;5051684;28;20198;-65
2021/03/03 05:10:12;;;;;;;15.77;9.73;;;;;;;-0.23;83.75;102099.28;5049870;28;20241;-64
2021/03/03 05:12:38;;;;;;;14.63;8.73;;;;;;;-0.25;83.17;102093.16;5051920;28;20213;-65
2021/03/03 05:15:05;;;;;;;14.57;9.50;;;;;;;-0.27;83.29;102096.63;5048902;28;20280;-65
2021/03/03 05:17:32;;;;;;;15.63;9.33;;;;;;;-0.29;83.57;102091.38;5047000;28;20573;-65
2021/03/03 05:19:58;;;;;;;15.43;9.57;;;;;;;-0.29;83.50;102090.50;5051558;28;20330;-65
2021/03/03 05:22:24;;;;;;;15.57;9.03;;;;;;;-0.30;83.54;102092.25;5048663;28;20319;-65
2021/03/03 05:24:50;;;;;;;16.57;10.00;;;;;;;-0.29;83.58;102086.16;5050582;28;20232;-65
2021/03/03 05:27:16;;;;;;;15.03;9.70;;;;;;;-0.29;83.63;102090.50;5048711;28;20202;-65
2021/03/03 05:29:42;;;;;;;17.30;10.20;;;;;;;-0.29;83.39;102088.78;5048867;28;20671;-65
2021/03/03 05:32:08;;;;;;;16.07;9.93;;;;;;;-0.28;83.16;102084.41;5048710;28;20561;-65
2021/03/03 05:34:35;;;;;;;19.50;10.50;;;;;;;-0.28;83.46;102084.41;5044410;28;20244;-65
2021/03/03 05:37:02;;;;;;;18.50;10.40;;;;;;;-0.28;83.56;102081.78;5039982;28;20233;-65
2021/03/03 05:39:28;;;;;;;16.10;9.80;;;;;;;-0.27;83.59;102080.94;5048981;28;20216;-65
2021/03/03 05:41:59;;;;;;;16.70;9.90;;;;;;;-0.29;83.79;102088.78;5046811;28;20301;-65
2021/03/03 05:44:25;;;;;;;19.87;9.73;;;;;;;-0.28;83.83;102089.66;5045897;28;20212;-63
2021/03/03 05:46:53;;;;;;;15.13;9.40;;;;;;;-0.29;83.84;102094.00;5042114;28;20197;-65
2021/03/03 05:49:23;;;;;;;16.27;10.07;;;;;;;-0.30;83.90;102089.63;5040739;28;20263;-65
2021/03/03 05:51:51;;;;;;;16.57;9.77;;;;;;;-0.29;83.77;102094.00;5035878;28;20682;-64
2021/03/03 05:54:17;;;;;;;17.93;10.30;;;;;;;-0.26;84.14;102096.63;5041790;28;20207;-64
2021/03/03 05:56:44;;;;;;;20.20;10.77;;;;;;;-0.27;84.07;102084.41;5042299;28;20221;-64
2021/03/03 05:59:11;;;;;;;37.37;18.30;;;;;;;-0.25;84.20;102087.03;5038743;28;20206;-65
2021/03/03 06:01:37;;;;;;;29.37;14.90;;;;;;;-0.21;84.29;102094.06;5038626;28;20206;-64
2021/03/03 06:04:04;;;;;;;31.27;15.67;;;;;;;-0.20;84.13;102086.19;5040553;28;20206;-66
2021/03/03 06:06:31;;;;;;;25.13;12.90;;;;;;;-0.18;84.21;102073.97;5036466;28;20226;-65
2021/03/03 06:08:58;;;;;;;20.50;10.87;;;;;;;-0.19;84.19;102077.47;5036312;28;20213;-65
2021/03/03 06:11:24;;;;;;;20.60;10.57;;;;;;;-0.21;84.00;102084.44;5039523;28;20232;-64
2021/03/03 06:13:50;;;;;;;21.33;11.60;;;;;;;-0.23;84.12;102075.72;5038093;28;20663;-65
2021/03/03 06:16:16;;;;;;;22.00;12.53;;;;;;;-0.23;84.19;102083.56;5038841;28;20222;-65
2021/03/03 06:18:43;;;;;;;25.60;13.07;;;;;;;-0.24;84.30;102076.59;5035174;28;20213;-65
2021/03/03 06:21:24;;;;;;;23.63;12.23;;;;;;;-0.24;84.40;102078.31;5036169;28;20213;-65
2021/03/03 06:23:59;;;;;;;21.70;11.57;;;;;;;-0.24;84.88;102068.72;5034772;28;20202;-65
2021/03/03 06:26:25;;;;;;;22.97;12.27;;;;;;;-0.24;84.85;102071.34;5037967;28;20221;-64
2021/03/03 06:28:52;;;;;;;25.40;12.80;;;;;;;-0.23;84.38;102075.72;5038728;28;20272;-65
2021/03/03 06:31:30;;;;;;;21.07;11.80;;;;;;;-0.23;84.41;102078.34;5040704;28;20220;-64
2021/03/03 06:34:10;;;;;;;21.07;11.27;;;;;;;-0.21;84.30;102078.34;5038233;28;20671;-69
2021/03/03 06:36:37;;;;;;;24.23;12.30;;;;;;;-0.20;84.68;102080.97;5045189;28;20236;-69
2021/03/03 06:39:22;;;;;;;22.90;12.47;;;;;;;-0.16;85.04;102076.59;5045301;28;20205;-68
2021/03/03 06:41:49;;;;;;;23.13;11.90;;;;;;;-0.14;84.99;102078.34;5045155;28;20508;-69
2021/03/03 06:44:16;;;;;;;21.40;13.17;;;;;;;-0.09;84.94;102075.75;5046726;28;20214;-69
2021/03/03 06:46:42;;;;;;;26.70;14.07;;;;;;;-0.06;84.87;102071.41;5047305;28;20568;-68
2021/03/03 06:49:21;;;;;;;23.23;13.33;;;;;;;0.00;85.30;102071.41;5046909;28;20209;-68
2021/03/03 06:51:49;;;;;;;27.77;14.63;;;;;;;0.05;85.32;102068.81;5047454;28;20263;-68
2021/03/03 06:54:18;;;;;;;23.97;12.87;;;;;;;0.10;85.28;102080.16;5045809;28;20214;-69
2021/03/03 06:56:46;;;;;;;23.23;12.77;;;;;;;0.14;85.08;102076.69;5034495;28;20237;-68
2021/03/03 06:59:15;;;;;;;23.63;13.03;;;;;;;0.18;85.42;102077.59;5032354;28;20856;-69
2021/03/03 07:01:42;;;;;;;33.37;15.73;;;;;;;0.22;85.62;102076.69;5036766;28;20193;-69
2021/03/03 07:04:35;;;;;;;30.23;15.23;;;;;;;0.28;85.56;102079.34;5038553;28;20206;-69
2021/03/03 07:07:03;;;;;;;31.80;15.60;;;;;;;0.34;85.89;102082.84;5033237;28;20230;-66
2021/03/03 07:09:40;;;;;;;30.73;15.13;;;;;;;0.43;85.76;102081.09;5031304;28;20706;-68
2021/03/03 07:12:09;;;;;;;36.50;17.10;;;;;;;0.49;85.92;102084.59;5038140;28;20213;-68
2021/03/03 07:14:35;;;;;;;38.00;17.17;;;;;;;0.58;86.14;102083.72;5047968;28;20221;-69
2021/03/03 07:17:13;;;;;;;36.83;17.50;;;;;;;0.65;85.94;102080.25;5048323;28;20299;-68
2021/03/03 07:19:42;;;;;;;32.77;17.53;;;;;;;0.72;85.97;102089.84;5047180;28;20212;-70
2021/03/03 07:22:31;;;;;;;37.77;17.87;;;;;;;0.80;86.43;102088.09;5044497;28;20189;-66
2021/03/03 07:24:59;;;;;;;35.57;18.70;;;;;;;0.87;86.42;102083.75;5036998;28;20241;-67
2021/03/03 07:27:26;;;;;;;40.20;19.67;;;;;;;0.95;86.38;102081.97;5039323;28;20217;-67
2021/03/03 07:29:54;;;;;;;38.03;18.13;;;;;;;1.01;86.39;102084.59;5039802;28;20202;-69
2021/03/03 07:32:20;;;;;;;43.50;20.90;;;;;;;1.07;86.75;102074.09;5041010;28;20206;-68
2021/03/03 07:34:48;;;;;;;51.30;20.23;;;;;;;1.12;86.72;102074.94;5036411;28;20230;-68
2021/03/03 07:37:16;;;;;;;39.50;20.57;;;;;;;1.20;86.83;102074.94;5039911;28;20356;-66
2021/03/03 07:39:47;;;;;;;40.03;19.53;;;;;;;1.27;87.13;102064.41;5039518;28;20214;-68
2021/03/03 07:42:20;;;;;;;48.47;19.30;;;;;;;1.35;87.07;102067.91;5039266;28;20288;-69
2021/03/03 07:44:49;;;;;;;43.43;20.43;;;;;;;1.44;87.02;102064.34;5044231;28;20221;-67
2021/03/03 07:47:17;;;;;;;43.83;20.50;;;;;;;1.52;87.26;102065.22;5039325;28;20205;-66
2021/03/03 07:49:45;;;;;;;38.77;19.97;;;;;;;1.62;87.20;102055.53;5035963;28;20295;-67
2021/03/03 07:52:13;;;;;;;48.07;20.13;;;;;;;1.75;87.52;102067.75;5047364;28;20209;-66
2021/03/03 07:54:40;;;;;;;47.27;22.37;;;;;;;1.89;87.65;102068.56;5044872;28;20225;-67
2021/03/03 07:57:07;;;;;;;46.90;22.10;;;;;;;2.05;88.10;102062.34;5040090;28;20233;-67
2021/03/03 07:59:33;;;;;;;50.13;22.17;;;;;;;2.23;88.49;102068.38;5044255;28;20210;-66
2021/03/03 08:02:00;;;;;;;43.33;19.87;;;;;;;2.38;88.41;102065.63;5046729;28;20216;-66
2021/03/03 08:04:36;;;;;;;40.33;19.20;;;;;;;2.54;88.20;102064.63;5041033;28;20575;-67
2021/03/03 08:07:25;;;;;;;32.33;18.63;;;;;;;2.70;88.91;102068.88;5039680;28;20205;-67
2021/03/03 08:10:31;;;;;;;35.80;17.87;;;;;;;2.85;88.49;102057.38;5033615;28;20210;-67
2021/03/03 08:13:02;;;;;;;33.50;16.77;;;;;;;3.02;88.54;102071.25;5037954;28;20202;-66
2021/03/03 08:15:33;;;;;;;26.33;16.93;;;;;;;3.16;88.05;102059.69;5035016;28;20222;-67
2021/03/03 08:18:23;;;;;;;32.37;17.53;;;;;;;3.31;88.41;102065.66;5035650;28;20281;-67
2021/03/03 08:20:51;;;;;;;34.33;18.60;;;;;;;3.45;88.49;102058.47;5040057;28;20221;-67
2021/03/03 08:23:47;;;;;;;32.77;17.80;;;;;;;3.62;88.52;102052.13;5035589;28;20290;-68
2021/03/03 08:26:37;;;;;;;34.43;18.13;;;;;;;3.75;88.54;102049.34;5035376;28;20229;-67
2021/03/03 08:29:18;;;;;;;33.17;17.47;;;;;;;3.87;88.55;102050.06;5035822;28;20683;-68
2021/03/03 08:31:44;;;;;;;32.47;18.07;;;;;;;4.00;88.62;102047.22;5035745;28;20216;-67
2021/03/03 08:34:15;;;;;;;32.80;18.67;;;;;;;4.14;88.38;102047.91;5035582;28;20625;-68
2021/03/03 08:36:50;;;;;;;29.33;17.93;;;;;;;4.30;88.40;102052.97;5039028;28;20304;-67
2021/03/03 08:39:37;;;;;;;26.90;16.17;;;;;;;4.44;88.39;102048.34;5036757;28;20234;-67
2021/03/03 08:42:31;;;;;;;33.33;17.50;;;;;;;4.60;88.22;102041.06;5038421;28;20426;-67
2021/03/03 08:45:05;;;;;;;26.90;16.80;;;;;;;4.77;87.68;102039.00;5035667;28;20682;-67
2021/03/03 08:48:02;;;;;;;27.67;16.73;;;;;;;4.93;87.83;102042.25;5037229;28;20271;-67
2021/03/03 08:50:41;;;;;;;28.03;16.03;;;;;;;5.11;87.36;102034.84;5034969;28;20202;-67
2021/03/03 08:53:30;;;;;;;26.80;16.87;;;;;;;5.31;87.73;102036.25;5033234;28;20214;-67
2021/03/03 08:55:57;;;;;;;27.23;15.93;;;;;;;5.48;87.65;102039.44;5037062;28;20276;-67
2021/03/03 08:59:00;;;;;;;25.00;16.03;;;;;;;5.66;87.35;102033.75;5040291;28;20686;-67
2021/03/03 09:01:51;;;;;;;21.47;14.57;;;;;;;5.83;86.81;102028.97;5036366;28;20206;-67
2021/03/03 09:04:18;;;;;;;24.60;14.23;;;;;;;5.97;86.24;102025.19;5038288;28;20202;-68
2021/03/03 09:06:47;;;;;;;27.30;15.43;;;;;;;6.10;85.85;102018.72;5041105;28;20209;-67
2021/03/03 09:09:13;;;;;;;26.53;16.13;;;;;;;6.24;86.20;102020.16;5036677;28;20382;-67
2021/03/03 09:11:39;;;;;;;25.20;14.83;;;;;;;6.38;85.39;102034.81;5036230;28;20213;-67
2021/03/03 09:14:06;;;;;;;23.80;14.37;;;;;;;6.50;85.38;102022.16;5033775;28;20210;-67
2021/03/03 09:16:32;;;;;;;22.30;13.50;;;;;;;6.64;85.21;102021.81;5036412;28;20249;-67
2021/03/03 09:19:06;;;;;;;25.23;13.63;;;;;;;6.77;84.77;102015.31;5036613;28;20225;-67
2021/03/03 09:21:32;;;;;;;21.13;13.57;;;;;;;6.87;84.58;102013.28;5037509;28;20205;-66
2021/03/03 09:24:10;;;;;;;23.27;13.50;;;;;;;6.97;83.80;102017.44;5035414;28;20202;-67
2021/03/03 09:26:36;;;;;;;20.87;13.73;;;;;;;7.07;83.62;102015.41;5036348;28;20234;-66
2021/03/03 09:29:03;;;;;;;21.83;13.23;;;;;;;7.16;83.39;102012.50;5032702;28;20209;-67
2021/03/03 09:31:30;;;;;;;23.90;13.63;;;;;;;7.24;82.63;102010.50;5032733;28;20206;-67
2021/03/03 09:33:56;;;;;;;20.97;14.47;;;;;;;7.35;82.74;102018.13;5033934;28;20206;-67
2021/03/03 09:36:22;;;;;;;22.77;14.73;;;;;;;7.46;83.04;102006.34;5035857;28;20241;-70
2021/03/03 09:38:53;;;;;;;21.63;13.73;;;;;;;7.59;82.58;102017.44;5033017;28;20230;-65
2021/03/03 09:41:20;;;;;;;22.90;13.57;;;;;;;7.70;82.21;102009.19;5038744;28;20218;-68
2021/03/03 09:43:58;;;;;;;22.00;13.37;;;;;;;7.85;82.46;102008.72;5032959;28;20206;-66
2021/03/03 09:46:24;;;;;;;24.60;13.20;;;;;;;7.99;82.59;102004.72;5041391;28;20225;-67
2021/03/03 09:48:50;;;;;;;22.53;13.30;;;;;;;8.15;81.85;101996.28;5048868;28;20733;-68
2021/03/03 09:51:16;;;;;;;23.93;13.50;;;;;;;8.30;81.49;102007.28;5046011;28;20206;-68
2021/03/03 09:53:51;;;;;;;18.73;13.50;;;;;;;8.48;81.45;101997.00;5040112;28;20682;-68
2021/03/03 09:56:28;;;;;;;18.10;12.03;;;;;;;8.63;80.51;101999.13;5045413;28;20785;-67
2021/03/03 09:58:55;;;;;;;18.77;11.63;;;;;;;8.76;79.70;101991.66;5045243;28;20221;-67
2021/03/03 10:01:21;;;;;;;18.80;12.97;;;;;;;8.86;79.71;101985.94;5045258;28;20202;-67
2021/03/03 10:03:49;;;;;;;17.87;11.47;;;;;;;8.94;78.33;101981.25;5044026;28;20198;-67
2021/03/03 10:06:15;;;;;;;18.63;11.83;;;;;;;9.00;77.98;101986.31;5040998;28;20283;-67
2021/03/03 10:08:41;;;;;;;14.33;9.57;;;;;;;9.08;77.51;101985.19;5038179;28;20202;-67
2021/03/03 10:11:07;;;;;;;18.33;11.70;;;;;;;9.15;76.55;101976.94;5042237;28;20705;-68
2021/03/03 10:13:40;;;;;;;11.83;8.73;;;;;;;9.21;76.39;101971.41;5041015;28;20213;-68
2021/03/03 10:16:14;;;;;;;10.23;6.97;;;;;;;9.27;74.98;101975.63;5039887;28;20283;-67
2021/03/03 10:18:40;;;;;;;13.17;7.80;;;;;;;9.32;73.27;101969.19;5034251;28;20651;-65
2021/03/03 10:21:06;;;;;;;15.23;7.83;;;;;;;9.43;72.11;101970.59;5035202;28;20210;-66
2021/03/03 10:23:34;;;;;;;12.23;7.33;;;;;;;9.55;71.26;101971.00;5037914;28;20681;-66
2021/03/03 10:26:01;;;;;;;16.43;8.67;;;;;;;9.68;69.36;101966.94;5039086;28;20226;-66
2021/03/03 10:28:28;;;;;;;11.97;7.73;;;;;;;9.82;68.28;101971.75;5036281;28;20198;-66
2021/03/03 10:30:56;;;;;;;11.37;7.17;;;;;;;10.00;67.00;101964.81;5038279;28;20208;-66
2021/03/03 10:33:27;;;;;;;15.83;7.77;;;;;;;10.19;66.59;101960.53;5035211;28;20683;-67
2021/03/03 10:35:53;;;;;;;14.33;7.63;;;;;;;10.35;64.70;101966.09;5045365;28;20304;-66
2021/03/03 10:38:22;;;;;;;15.73;8.47;;;;;;;10.49;63.74;101962.84;5037334;28;20222;-67
2021/03/03 10:40:50;;;;;;;13.10;8.77;;;;;;;10.62;63.38;101956.06;5041717;28;20205;-68
2021/03/03 10:43:17;;;;;;;15.87;10.47;;;;;;;10.73;62.62;101956.47;5040192;28;20202;-67
2021/03/03 10:45:44;;;;;;;17.37;9.67;;;;;;;10.90;62.89;101961.94;5039763;28;20225;-68
2021/03/03 10:48:26;;;;;;;18.33;9.97;;;;;;;11.06;62.81;101957.66;5043443;28;20227;-68
2021/03/03 10:50:53;;;;;;;16.63;9.63;;;;;;;11.24;62.67;101957.75;5045648;28;20201;-69
2021/03/03 10:53:21;;;;;;;15.30;9.87;;;;;;;11.35;61.92;101958.13;5041040;28;20211;-69
2021/03/03 10:55:47;;;;;;;14.77;9.83;;;;;;;11.44;61.75;101955.06;5045122;28;20225;-68
2021/03/03 10:58:14;;;;;;;14.63;9.30;;;;;;;11.54;61.51;101956.34;5042275;28;20293;-66
2021/03/03 11:01:00;;;;;;;19.23;10.07;;;;;;;11.63;61.43;101950.59;5040822;28;20632;-67
2021/03/03 11:03:28;;;;;;;13.93;9.20;;;;;;;11.72;61.18;101952.81;5036538;28;20755;-67
2021/03/03 11:05:56;;;;;;;14.60;9.93;;;;;;;11.80;60.60;101950.69;5041696;28;20222;-68
2021/03/03 11:08:23;;;;;;;15.63;9.73;;;;;;;11.87;59.53;101939.69;5038821;28;20199;-68
2021/03/03 11:10:50;;;;;;;15.27;10.27;;;;;;;11.94;57.41;101933.13;5039864;28;20209;-69
2021/03/03 11:13:16;;;;;;;13.77;9.03;;;;;;;12.00;57.03;101924.84;5043489;28;20209;-68
2021/03/03 11:15:44;;;;;;;16.13;10.03;;;;;;;12.07;56.44;101927.13;5043893;28;20229;-68
2021/03/03 11:18:11;;;;;;;20.57;10.33;;;;;;;12.19;55.80;101928.31;5038697;28;20228;-70
2021/03/03 11:20:38;;;;;;;17.43;9.93;;;;;;;12.31;55.03;101925.03;5041975;28;20201;-69
2021/03/03 11:23:05;;;;;;;15.93;9.60;;;;;;;12.40;54.41;101919.22;5047423;28;20210;-69
2021/03/03 11:25:31;;;;;;;20.73;9.93;;;;;;;12.51;53.72;101916.88;5039170;28;20228;-69